Terminal Aerodrome Forecast
Issued by NWS Boston, MA

Home | Current Version | Previous Version | Text Only | Print | Product List | Glossary On
Versions: 1 2 3 4 5 6 7 8 9 10 11 12 13 14 15 16 17 18 19 20 21 22 23 24 25 26 27 28 29 30 31 32 33 34 35 36 37 38 39 40 41 42 43 44 45 46 47 48 49 50
181
FTUS41 KBOX 080851 AAA
TAFBDL
TAF AMD
KBDL 080851Z 0809/0912 30003KT 2SM BR SCT001 BKN150
      TEMPO 0809/0811 1/2SM FZFG BKN001
     FM081100 VRB03KT P6SM BKN090
     FM081800 26007KT P6SM BKN070
     FM082200 27006KT P6SM SCT120=

USA.gov is the U.S. government's official web portal to all federal, state and local government web resources and services.